Date,TemperatureHighF,TemperatureAvgF,TemperatureLowF,DewpointHighF,DewpointAvgF,DewpointLowF,HumidityHigh,HumidityAvg,HumidityLow,PressureMaxIn,PressureMinIn,WindSpeedMaxMPH,WindSpeedAvgMPH,GustSpeedMaxMPH,PrecipitationSumIn
2013-1-1,49.3,47.3,45.3,43.1,38.6,36.6,82,72,64,30.18,29.65,13,6,18,0.05
2013-1-2,53.1,51.7,47.7,51.4,48.7,39.4,94,90,73,30.45,30.18,10,5,15,0.00
2013-1-3,54.5,53.0,52.0,51.4,49.7,46.7,94,89,82,30.68,30.45,7,3,11,0.00
2013-1-4,54.7,52.8,51.6,49.9,48.2,46.0,89,85,81,30.68,30.57,5,2,11,0.00
2013-1-5,54.9,52.3,50.5,49.9,48.4,47.2,90,87,83,30.57,30.48,9,4,15,0.00
2013-1-6,53.1,51.5,50.0,50.6,48.8,46.0,93,90,86,30.51,30.33,4,2,10,0.08
2013-1-7,52.9,51.4,49.1,49.2,47.6,45.1,92,87,82,30.33,30.18,7,3,13,0.00
2013-1-8,55.2,53.3,32.0,53.5,50.9,48.5,94,91,87,30.21,30.15,7,3,11,0.08
2013-1-9,51.8,48.9,44.8,48.8,45.0,39.6,92,86,82,30.21,30.03,4,1,6,0.05
2013-1-10,50.5,46.7,42.1,47.1,41.1,36.0,89,81,73,30.09,29.95,12,4,19,0.16
2013-1-11,52.2,47.7,43.3,48.2,43.1,37.6,91,84,79,30.09,29.68,5,2,12,0.08
2013-1-12,49.8,47.6,45.7,45.1,43.3,41.2,88,85,79,29.86,29.50,7,2,14,0.29
2013-1-13,45.9,43.2,40.5,41.9,36.3,33.4,86,77,67,30.18,29.86,6,2,11,0.00
2013-1-14,48.4,45.5,42.6,43.0,38.5,31.1,86,76,60,30.09,29.86,14,6,20,0.25
2013-1-15,47.8,44.6,32.0,37.7,34.8,30.8,77,68,61,29.92,29.68,13,4,21,0.00
2013-1-16,46.9,44.9,32.0,40.0,36.3,31.6,85,72,61,29.92,29.62,6,3,13,0.13
2013-1-17,47.1,45.4,44.2,41.6,38.2,32.0,85,76,62,29.95,29.56,6,3,17,0.41
2013-1-18,46.9,44.6,42.4,44.2,41.1,37.7,90,87,82,29.56,29.24,8,2,18,1.41
2013-1-19,44.4,41.1,32.0,40.8,34.7,30.4,87,78,71,29.47,29.24,6,3,10,0.00
2013-1-20,39.4,36.9,34.9,31.4,26.8,24.4,74,67,62,29.47,29.27,5,2,10,0.00
2013-1-21,42.8,38.5,36.3,36.4,30.9,26.0,81,74,66,29.39,29.24,4,0,8,0.33
2013-1-22,43.5,38.5,34.5,38.4,32.8,27.7,85,80,76,29.62,29.27,6,2,10,0.04
2013-1-23,44.6,41.1,36.5,35.8,33.6,29.3,81,75,70,29.71,29.59,6,2,12,0.00
2013-1-24,44.4,40.8,37.4,36.5,34.3,30.5,81,77,74,30.03,29.71,6,1,10,0.00
2013-1-25,50.9,45.9,41.9,49.5,41.6,35.2,95,85,75,30.01,29.42,16,5,24,0.00
2013-1-26,53.1,48.9,43.0,51.7,43.2,35.9,95,81,69,29.89,29.42,15,7,22,0.00
2013-1-27,53.8,48.7,44.2,52.4,41.6,36.3,95,77,65,29.71,29.33,15,7,24,0.00
2013-1-28,53.2,48.6,41.9,51.4,44.3,35.1,94,85,76,29.77,29.42,15,7,24,0.29
2013-1-29,55.8,54.6,52.0,54.3,53.2,50.0,97,95,93,29.68,29.56,15,9,25,0.95
2013-1-30,53.4,50.8,48.0,51.8,45.4,40.5,95,82,70,30.07,29.59,14,6,29,0.13
2013-1-31,53.1,50.9,48.2,48.3,44.4,41.7,89,79,69,30.03,29.86,12,7,21,0.16
2013-2-1,49.1,47.7,46.0,44.6,40.4,33.8,86,76,61,29.86,29.59,12,6,22,0.50
2013-2-2,48.0,44.6,38.8,36.8,31.3,27.3,70,60,53,30.30,29.77,11,6,17,0.00
2013-2-3,51.3,48.1,39.4,48.8,43.8,29.3,92,85,67,30.30,30.09,12,5,24,0.21
2013-2-4,52.3,49.8,46.0,49.4,43.3,38.2,94,79,62,30.15,29.92,18,10,33,0.00
2013-2-5,47.3,44.8,39.6,40.1,35.6,31.0,82,70,57,29.92,29.62,18,12,34,0.25
2013-2-6,46.8,44.1,41.0,37.8,33.1,27.0,83,65,54,30.21,29.71,18,10,29,0.16
2013-2-7,47.3,44.2,41.0,42.0,34.6,29.3,85,69,58,30.24,29.98,14,6,24,0.34
2013-2-8,48.0,45.9,42.4,42.0,37.5,34.5,80,72,61,30.27,30.09,10,6,17,0.00
2013-2-9,51.8,48.8,46.6,45.2,43.2,40.1,86,81,76,30.24,29.80,10,5,15,0.00
2013-2-10,50.4,47.0,41.4,48.1,41.5,33.5,92,81,68,29.80,29.27,13,5,25,0.74
2013-2-11,49.1,43.6,36.9,41.3,36.9,29.7,84,77,72,29.77,29.30,7,2,10,0.00
2013-2-12,47.8,45.5,43.2,40.5,38.4,36.6,83,76,70,30.03,29.77,3,0,4,0.00
2013-2-13,52.2,48.8,45.5,50.5,45.7,39.2,95,89,79,30.03,29.86,9,3,16,0.50
2013-2-14,51.8,49.5,47.1,50.1,45.9,43.1,94,87,78,30.09,29.83,13,5,17,0.37
2013-2-15,51.6,48.0,44.8,44.2,41.2,37.7,86,77,66,30.18,30.09,5,1,8,0.00
2013-2-16,52.5,47.2,42.1,43.8,40.8,35.4,87,78,71,30.15,30.03,5,1,9,0.00
2013-2-17,50.0,46.4,44.6,42.8,38.8,35.9,86,75,66,30.07,29.86,11,4,22,0.00
2013-2-18,51.6,46.5,43.0,42.7,38.6,35.8,77,74,71,30.01,29.86,8,4,18,0.00
2013-2-19,48.7,42.5,37.2,40.7,35.0,29.7,84,75,69,30.01,29.95,8,2,14,0.00
2013-2-20,49.5,43.3,36.9,40.4,35.8,29.7,86,75,69,30.03,29.98,11,4,19,0.00
2013-2-21,45.0,42.3,39.7,35.1,29.3,24.9,69,60,53,30.03,29.95,13,9,24,0.00
2013-2-22,40.5,37.6,35.6,28.2,22.5,18.8,63,54,50,30.09,29.95,11,6,21,0.00
2013-2-23,41.9,37.8,35.4,24.3,21.9,18.8,60,53,48,30.21,30.09,6,2,9,0.00
2013-2-24,42.8,38.6,34.5,26.3,24.4,22.1,65,57,48,30.33,30.21,8,2,13,0.00
2013-2-25,42.3,39.0,36.1,27.5,25.6,24.0,62,59,54,30.36,30.33,9,1,11,0.00
2013-2-26,44.1,43.1,42.3,35.3,33.9,32.2,72,70,66,30.51,30.42,7,4,11,0.00
2013-2-27,46.9,42.9,37.2,35.6,33.7,28.3,75,70,63,30.51,30.42,7,4,11,0.00
2013-2-28,44.4,40.2,34.3,30.4,28.0,24.9,72,62,53,30.42,30.27,6,2,8,0.00
2013-3-1,46.9,43.2,39.0,35.4,32.3,27.5,71,65,56,30.36,30.30,9,4,13,0.00
2013-3-2,44.8,42.7,41.0,32.7,29.2,27.3,64,59,55,30.33,30.21,6,2,8,0.00
2013-3-3,45.0,43.0,41.0,34.5,32.8,29.1,70,67,62,30.21,29.92,11,5,17,0.00
2013-3-4,50.2,45.9,43.3,39.6,37.2,34.2,78,71,66,29.92,29.62,9,5,15,0.00
2013-3-5,54.0,48.0,40.1,46.2,41.8,32.8,86,79,74,29.62,29.44,7,2,14,0.00
2013-3-6,55.6,51.2,48.9,48.6,46.3,44.6,87,83,76,29.44,29.33,6,3,13,0.00
2013-3-7,55.6,52.2,50.7,52.7,49.6,46.9,94,91,86,29.33,29.21,5,2,13,0.25
2013-3-8,57.9,53.4,50.5,52.2,50.1,47.2,94,89,76,29.50,29.27,6,3,10,0.00
2013-3-9,57.9,52.7,49.8,51.4,48.4,46.0,92,85,71,29.56,29.50,6,2,10,0.00
2013-3-10,50.0,44.1,38.7,46.6,39.2,30.7,91,83,73,29.59,29.53,12,7,21,0.00
2013-3-11,38.8,36.1,32.2,30.7,22.6,16.1,73,58,46,29.80,29.56,13,9,25,0.00
2013-3-12,40.5,34.8,29.5,23.5,17.6,13.3,58,49,42,29.92,29.80,13,7,21,0.00
2013-3-13,46.9,40.7,34.7,34.7,29.9,22.3,77,65,55,30.01,29.89,10,3,15,0.00
2013-3-14,48.2,41.7,35.8,35.7,31.6,28.3,78,68,54,30.07,29.92,7,2,11,0.00
2013-3-15,50.4,46.4,32.0,44.3,41.3,34.9,87,82,74,29.92,29.42,12,6,23,0.00
2013-3-16,51.1,45.3,41.4,44.4,39.3,35.3,87,79,73,29.42,29.18,11,3,17,0.00
2013-3-17,47.5,42.1,38.3,38.2,34.8,30.1,80,75,65,29.27,29.15,8,2,13,0.00
2013-3-18,52.3,42.9,32.0,38.3,34.6,29.7,81,72,58,29.39,29.15,8,2,10,0.00
2013-3-19,47.8,42.3,36.5,39.2,35.5,29.7,83,77,70,29.47,29.36,6,1,8,0.00
2013-3-20,48.7,43.2,37.6,38.3,35.2,31.0,82,74,64,29.80,29.39,7,1,11,0.69
2013-3-21,51.4,46.8,43.0,50.3,43.7,34.6,97,89,71,29.80,29.47,9,4,20,0.00
2013-3-22,51.8,49.8,48.2,49.9,47.5,46.0,95,92,87,29.53,29.36,9,3,13,0.00
2013-3-23,49.3,46.7,42.3,46.5,43.0,37.5,91,87,83,29.71,29.53,9,4,15,0.00
2013-3-24,42.3,40.6,38.3,37.5,35.0,31.1,85,80,75,29.80,29.68,8,5,14,0.00
2013-3-25,41.0,38.7,36.5,31.4,28.0,26.1,75,65,61,29.83,29.80,6,3,12,0.00
2013-3-26,41.2,37.6,36.1,26.8,25.2,23.6,64,61,56,29.83,29.77,8,3,12,0.00
2013-3-27,43.0,38.7,33.8,30.6,26.0,21.8,64,60,56,29.80,29.71,6,2,10,0.00
2013-3-28,46.6,37.8,30.4,32.0,24.8,20.5,70,60,49,29.80,29.71,6,2,11,0.00
2013-3-29,42.3,40.5,38.8,32.1,29.5,26.2,75,65,58,29.71,29.56,12,7,23,0.00
2013-3-30,48.9,41.1,36.9,30.2,26.2,22.8,68,55,47,29.83,29.59,8,3,14,0.00
2013-3-31,48.0,43.1,39.4,31.7,27.4,24.4,61,54,49,29.83,29.59,12,5,19,0.00
2013-4-1,47.3,42.9,40.6,30.1,27.2,24.4,59,54,49,29.71,29.56,13,8,23,0.00
2013-4-2,48.9,41.7,35.1,31.0,26.5,22.2,60,55,47,29.95,29.68,10,4,17,0.00
2013-4-3,49.1,39.5,31.3,29.7,23.7,17.8,62,53,42,29.95,29.86,9,2,13,0.00
2013-4-4,44.6,39.1,34.9,24.9,22.0,18.9,57,50,42,29.92,29.86,11,5,18,0.00
2013-4-5,47.5,40.4,34.2,26.9,23.2,18.9,56,50,42,30.09,29.89,12,5,21,0.00
2013-4-6,49.3,39.8,31.6,28.6,23.8,18.1,63,53,43,30.21,30.09,6,2,11,0.00
2013-4-7,40.1,37.5,35.8,28.9,25.4,22.8,65,61,58,30.15,30.03,3,1,6,0.00
2013-4-8,48.6,46.5,46.0,45.2,42.6,40.9,89,86,82,29.39,29.21,10,4,14,0.17
2013-4-9,51.4,47.1,44.2,43.6,41.7,40.5,90,82,73,29.53,29.15,8,2,17,0.41
2013-4-10,51.4,46.3,40.1,47.7,41.7,33.5,90,84,75,29.56,29.24,9,2,15,0.17
2013-4-11,56.7,50.7,32.0,50.6,46.3,39.6,93,84,76,29.39,29.21,10,4,20,0.17
2013-4-12,57.4,51.1,46.9,46.6,44.4,40.8,88,78,64,29.71,29.18,14,6,20,0.12
2013-4-13,55.9,51.6,45.5,53.4,48.8,39.2,95,90,79,29.71,29.56,13,5,18,0.54
2013-4-14,59.2,54.9,52.9,53.0,51.0,49.4,94,87,74,29.83,29.65,15,8,20,0.08
2013-4-15,59.2,54.5,51.8,52.3,50.0,48.7,91,85,78,29.95,29.80,10,6,20,0.04
2013-4-16,60.8,54.7,32.0,51.4,49.4,47.1,93,82,68,29.98,29.80,10,5,22,0.09
2013-4-17,57.2,54.1,49.3,52.7,50.0,40.6,94,86,72,29.95,29.68,14,7,24,0.03
2013-4-18,57.4,51.6,48.0,45.5,41.4,38.3,76,68,56,30.15,29.80,19,8,24,0.00
2013-4-19,57.0,50.1,43.7,45.0,41.3,35.6,80,72,63,30.45,30.15,11,6,17,0.00
2013-4-20,58.5,47.7,39.2,43.7,37.9,31.9,82,69,57,30.45,30.27,5,1,8,0.00
2013-4-21,55.9,48.3,39.4,48.7,40.6,30.8,82,75,68,30.27,29.98,10,3,13,0.00
2013-4-22,54.1,50.7,47.8,49.7,46.0,42.9,86,84,79,30.03,29.98,6,3,12,0.00
2013-4-23,58.8,54.8,32.0,51.6,49.4,48.1,86,80,76,30.21,30.15,8,2,10,0.00
2013-4-24,60.1,54.1,51.3,53.9,49.9,47.6,92,86,79,30.21,30.15,6,1,10,0.00
2013-4-25,61.3,53.6,50.0,51.3,48.1,45.0,87,82,69,30.18,30.07,7,2,11,0.00
2013-4-26,54.3,49.1,45.5,45.3,37.7,33.7,85,65,50,30.09,29.98,11,6,17,0.00
2013-4-27,53.2,47.8,43.5,40.3,36.4,33.2,77,65,48,30.07,29.92,10,5,17,0.05
2013-4-28,57.4,48.9,42.4,44.9,40.0,33.7,82,71,56,30.07,29.89,8,3,13,0.00
2013-4-29,56.1,49.8,45.1,42.8,38.9,36.6,81,67,53,30.18,29.95,11,6,18,0.00
2013-4-30,54.5,49.2,43.0,41.4,38.7,34.0,82,68,47,30.24,30.15,10,4,13,0.00
2013-5-1,56.1,49.3,41.0,43.1,38.5,32.9,80,68,46,30.21,30.15,9,4,14,0.00
2013-5-2,60.8,52.6,44.8,44.0,40.7,36.7,83,65,43,30.18,30.12,8,3,13,0.00
2013-5-3,59.5,53.1,45.3,48.1,43.8,37.2,84,71,57,30.15,30.03,9,4,13,0.00
2013-5-4,60.8,54.8,50.7,49.6,46.6,44.0,85,74,56,30.12,29.95,11,6,17,0.00
2013-5-5,62.8,55.3,48.2,49.8,45.3,37.8,83,70,53,30.15,30.09,5,2,10,0.00
2013-5-6,59.2,51.6,45.9,49.9,43.9,35.7,82,75,67,30.09,30.03,5,1,8,0.00
2013-5-8,58.3,52.4,49.3,44.4,41.3,39.8,72,66,59,29.77,29.68,9,5,19,0.17
2013-5-9,57.6,51.7,48.4,48.6,44.6,40.1,90,77,62,29.77,29.62,14,8,28,0.12
2013-5-10,61.7,53.4,47.5,51.8,47.1,42.3,89,79,70,29.92,29.77,9,5,20,0.21
2013-5-11,58.8,52.7,47.5,49.0,45.0,41.5,88,76,61,30.01,29.80,15,8,26,0.08
2013-5-12,56.1,52.1,47.8,52.6,47.5,40.6,89,84,76,30.03,29.98,8,4,14,0.09
2013-5-13,58.8,53.5,49.3,49.7,44.5,40.8,89,73,54,29.98,29.83,14,6,23,0.04
2013-5-14,52.9,48.8,32.0,49.4,43.7,39.7,94,82,73,29.83,29.03,20,5,28,1.08
2013-5-15,56.7,50.1,32.0,44.1,41.1,37.3,88,71,55,29.53,29.27,12,7,20,0.00
2013-5-16,54.5,48.3,42.3,43.0,39.2,34.6,78,71,56,29.53,29.42,6,1,11,0.16
2013-5-17,56.7,47.8,32.0,46.9,40.1,32.6,83,74,58,29.80,29.47,6,2,10,0.29
2013-5-18,57.2,51.5,45.1,48.8,44.4,38.5,86,77,63,29.80,29.71,9,4,15,0.00
2013-5-19,59.5,53.6,48.7,48.2,45.8,42.8,88,75,59,29.98,29.74,8,4,12,0.00
2013-5-20,60.4,55.1,50.2,52.1,49.1,43.6,90,80,73,30.01,29.92,10,6,17,0.00
2013-5-21,57.0,53.8,50.9,51.7,47.9,45.3,92,81,69,30.12,30.01,10,6,15,0.00
2013-5-22,60.3,54.1,49.1,51.1,45.9,40.4,89,74,52,30.15,30.07,9,5,16,0.00
2013-5-23,56.8,51.3,48.2,46.8,38.9,33.3,84,63,49,30.09,30.01,15,6,19,0.04
2013-5-24,54.9,49.4,46.4,41.7,39.8,37.0,79,70,56,30.03,29.92,13,7,24,0.17
2013-5-25,58.8,50.2,41.0,43.1,38.6,33.3,77,65,51,30.15,30.03,6,2,10,0.00
2013-5-26,62.2,51.2,40.3,45.0,38.3,31.1,78,62,47,30.15,29.92,6,2,12,0.00
2013-5-27,57.2,50.6,44.2,48.7,44.0,33.7,86,78,64,29.92,29.50,10,3,16,0.83
2013-5-28,58.1,51.9,46.0,47.6,44.8,40.6,86,77,63,29.56,29.50,12,5,17,0.08
2013-5-29,60.1,54.1,32.0,50.1,47.8,45.3,86,79,67,29.86,29.50,9,4,15,0.62
2013-5-30,62.8,56.7,53.1,51.0,49.1,46.2,86,76,63,30.03,29.86,13,8,20,0.05
2013-5-31,63.0,57.1,51.8,52.5,50.1,46.4,86,78,66,30.18,30.03,10,5,15,0.00
2013-6-1,60.6,55.9,32.0,51.8,47.1,42.3,89,72,57,30.33,30.18,10,6,15,0.00
2013-6-2,64.4,57.2,50.4,51.6,46.5,41.8,85,69,45,30.39,30.30,8,3,13,0.00
2013-6-3,68.4,58.4,48.9,47.9,44.4,40.1,74,61,45,30.39,30.27,5,1,10,0.00
2013-6-4,68.0,56.6,47.1,46.5,42.7,36.9,73,60,45,30.30,30.09,7,2,12,0.00
2013-6-5,64.8,56.4,48.2,51.3,45.6,38.1,75,67,58,30.09,29.98,6,2,11,0.00
2013-6-6,70.7,60.0,49.5,54.0,48.7,40.4,79,67,54,30.07,29.98,8,2,12,0.00
2013-6-7,68.4,59.2,54.1,54.0,49.5,46.4,77,71,60,30.07,30.03,2,0,4,0.00
2013-6-8,72.5,62.8,56.5,54.4,50.3,45.5,80,65,46,30.07,29.92,5,1,8,0.12
2013-6-9,68.7,60.6,52.2,50.5,46.6,40.6,71,60,49,29.98,29.83,4,1,8,0.00
2013-6-10,58.6,55.2,50.2,52.4,47.6,39.8,89,76,63,29.89,29.77,6,2,14,0.13
2013-6-11,68.0,60.0,55.6,57.3,55.0,52.4,94,84,66,29.80,29.68,8,4,17,0.28
2013-6-12,63.5,58.8,56.3,59.4,55.6,52.1,92,89,83,29.77,29.68,11,6,20,0.21
2013-6-13,64.6,58.3,55.8,54.3,50.2,46.8,93,75,56,30.01,29.68,12,6,22,0.00
2013-6-14,65.3,57.9,53.2,53.3,51.4,48.8,88,80,63,30.01,29.65,11,6,17,0.21
2013-6-15,64.2,58.1,52.5,53.0,49.4,47.3,86,73,59,29.86,29.68,11,6,18,0.12
2013-6-16,60.1,56.9,32.0,54.9,52.1,49.1,88,83,79,29.86,29.71,6,2,12,0.13
2013-6-17,70.0,60.5,56.1,61.0,56.6,53.5,93,87,72,29.83,29.71,5,1,8,0.25
2013-6-18,67.8,61.5,57.6,60.0,56.7,52.1,91,84,73,29.95,29.80,1,0,5,0.12
2013-6-19,66.6,61.0,55.9,57.5,53.6,48.2,91,77,59,29.95,29.92,11,4,15,0.00
2013-6-20,64.6,58.6,56.1,55.6,52.6,48.8,91,81,72,29.92,29.74,11,3,17,0.37
2013-6-21,66.9,60.1,56.1,57.6,54.2,48.8,94,81,66,29.89,29.80,11,4,17,0.13
2013-6-22,62.1,58.4,56.1,55.9,53.6,52.1,93,84,74,29.80,29.68,9,5,18,0.21
2013-6-23,63.3,58.1,55.4,53.6,50.6,48.1,90,77,64,30.15,29.74,15,8,26,0.04
2013-6-24,66.0,58.4,53.2,50.8,48.3,43.9,83,70,52,30.27,30.15,8,4,12,0.00
2013-6-25,64.4,58.6,52.5,54.1,50.7,43.8,82,75,67,30.39,30.27,6,1,6,0.00
2013-6-26,67.6,60.2,52.2,55.8,52.3,45.0,84,76,63,30.42,30.39,9,2,10,0.00
2013-6-27,65.3,59.7,54.1,56.5,53.3,49.4,91,80,66,30.42,30.24,12,4,16,0.00
2013-6-28,64.6,60.2,57.0,58.2,56.3,54.6,94,87,77,30.24,30.15,12,5,17,0.00
2013-6-29,67.1,61.1,32.0,58.9,56.3,53.3,95,83,71,30.27,30.15,11,7,17,0.00
2013-6-30,66.7,60.6,56.7,57.0,54.6,52.1,90,81,69,30.27,30.09,8,4,11,0.00
2013-7-1,65.7,61.1,57.0,51.3,49.7,48.4,74,66,59,30.01,29.95,8,2,12,0.00
2013-7-2,63.1,59.5,56.8,59.8,55.3,48.8,93,86,74,29.95,29.62,8,3,15,0.16
2013-7-3,67.5,61.2,56.8,57.2,55.3,53.3,93,81,66,30.01,29.62,14,6,20,0.00
2013-7-4,68.4,62.5,58.1,60.6,56.2,50.6,93,81,60,30.27,29.98,9,4,14,0.00
2013-7-5,70.0,62.3,56.5,55.4,51.6,47.3,80,69,56,30.33,30.27,6,2,11,0.00
2013-7-6,68.4,61.7,54.1,56.0,52.2,45.8,83,71,57,30.36,30.27,7,2,11,0.00
2013-7-7,76.5,66.2,56.3,61.8,56.4,49.5,83,71,57,30.39,30.33,6,1,10,0.00
2013-7-8,78.1,68.6,59.4,60.0,55.7,52.1,81,65,45,30.39,30.27,6,2,10,0.00
2013-7-9,77.9,71.7,32.0,62.0,57.2,50.4,66,59,52,30.30,30.15,3,1,6,0.00
2013-7-10,77.9,65.5,32.0,55.7,51.6,46.8,73,61,44,30.18,30.09,6,2,9,0.00
2013-7-11,72.3,64.8,32.0,57.0,53.0,45.6,79,65,53,30.15,30.12,6,2,10,0.00
2013-7-12,74.1,63.2,52.9,60.6,52.9,42.6,78,69,62,30.18,30.12,5,1,8,0.00
2013-7-13,77.9,67.7,57.4,62.1,55.0,49.0,82,65,41,30.21,30.15,6,1,10,0.00
2013-7-14,77.0,68.6,59.7,63.0,58.6,51.0,83,71,57,30.21,30.18,8,2,13,0.00
2013-7-15,72.1,67.1,63.1,60.4,58.1,54.5,81,73,64,30.21,30.15,8,3,11,0.00
2013-7-18,73.0,68.5,32.0,58.3,57.5,56.4,71,64,60,30.18,30.15,1,0,2,0.00
2013-7-19,76.8,68.8,60.8,62.2,57.6,52.8,79,68,57,30.18,30.07,7,2,13,0.00
2013-7-20,76.6,68.4,59.7,61.0,57.1,51.0,80,68,58,30.12,30.01,13,3,14,0.00
2013-7-21,74.5,68.0,63.1,62.8,59.4,56.0,82,74,65,30.03,29.89,10,3,15,0.00
2013-7-22,72.1,67.3,62.8,63.8,61.0,55.3,89,80,71,29.95,29.86,4,1,8,0.00
2013-7-23,67.8,66.4,65.1,60.7,60.1,59.5,84,80,77,29.86,29.83,3,2,7,0.00
2013-7-24,69.8,66.2,64.4,62.4,61.1,59.8,91,84,73,29.86,29.77,5,2,10,0.50
2013-7-25,75.7,68.6,62.1,62.9,59.8,54.4,92,74,61,29.86,29.74,5,2,10,0.00
2013-7-26,73.4,65.8,59.4,61.1,57.7,51.0,88,76,64,29.83,29.77,5,1,9,0.00
2013-7-27,72.5,64.2,56.5,61.1,55.9,48.6,87,75,62,29.77,29.59,3,0,6,0.12
2013-7-28,69.6,64.4,32.0,62.8,59.6,55.4,91,84,74,29.68,29.53,7,3,12,0.13
2013-7-29,72.0,64.9,61.5,63.1,59.4,56.0,93,83,66,29.92,29.65,8,4,13,0.16
2013-7-30,72.0,67.7,61.3,64.4,60.4,56.3,86,78,68,29.95,29.83,8,3,12,0.17
2013-7-31,69.3,66.3,32.0,66.3,63.8,60.5,96,91,86,29.95,29.80,8,4,17,0.04
2013-8-1,73.2,67.1,32.0,63.9,61.8,58.8,92,83,69,29.80,29.62,6,2,13,0.00
2013-8-2,73.0,66.1,32.0,63.1,60.2,53.5,92,80,63,29.74,29.62,8,3,13,0.17
2013-8-3,72.0,64.4,32.0,60.3,57.7,55.2,90,78,65,30.01,29.74,9,3,11,0.04
2013-8-4,67.8,64.9,62.4,64.4,61.6,57.5,94,89,84,30.01,29.80,11,4,16,0.83
2013-8-5,68.9,64.0,57.6,63.9,60.8,53.4,96,90,80,29.95,29.68,11,3,12,1.82
2013-8-6,68.0,61.1,54.7,57.9,54.0,49.9,89,78,62,29.98,29.74,6,1,6,0.00
2013-8-7,69.3,61.2,53.2,56.9,53.0,47.6,88,75,52,30.03,29.80,8,2,12,0.00
2013-8-8,71.1,63.0,55.9,62.2,56.5,50.7,93,80,65,30.07,29.98,8,3,13,0.04
2013-8-9,69.8,64.3,57.9,62.2,55.2,49.5,93,74,52,30.21,30.01,9,4,13,0.05
2013-8-10,67.6,62.6,57.0,60.5,56.9,50.4,88,82,74,30.21,30.12,4,2,8,0.00
2013-8-11,69.4,64.0,60.6,59.2,55.4,50.2,91,75,55,30.12,30.01,9,3,12,0.04
2013-8-12,67.5,62.6,58.1,55.4,52.4,49.2,83,70,56,30.15,30.01,9,4,16,0.00
2013-8-13,70.2,62.2,55.2,55.5,52.8,49.7,84,72,55,30.18,30.12,6,2,11,0.00
2013-8-14,74.7,65.0,57.6,66.6,60.1,49.5,94,85,74,30.18,30.09,7,3,13,0.08
2013-8-15,72.7,67.3,64.2,65.5,63.3,61.2,94,87,76,30.12,29.95,8,5,13,0.21
2013-8-16,68.7,64.6,58.1,63.3,59.1,51.4,95,83,66,30.01,29.89,8,4,15,0.29
2013-8-17,66.2,62.2,57.6,64.5,59.0,51.6,96,89,80,30.01,29.71,9,4,21,0.41
2013-8-18,70.0,63.4,57.4,60.4,57.3,51.6,94,81,56,29.95,29.74,8,3,13,0.09
2013-8-19,69.1,62.0,56.5,57.3,53.7,50.8,90,75,55,30.30,29.95,7,3,12,0.00
2013-8-20,71.1,61.2,52.7,58.6,52.8,46.0,88,74,61,30.33,30.24,6,1,10,0.00
2013-8-21,72.0,62.6,53.6,62.0,55.3,47.4,87,77,66,30.27,30.09,4,1,7,0.00
2013-8-22,72.1,64.6,59.0,62.6,58.9,53.2,93,82,70,30.12,29.92,4,2,8,0.00
2013-8-23,70.3,63.1,57.0,62.9,57.1,51.4,91,81,64,29.95,29.80,7,2,11,0.00
2013-8-24,66.2,62.2,59.4,59.3,52.4,45.7,90,71,51,30.01,29.89,11,6,17,0.00
2013-8-25,67.5,63.2,60.6,60.1,57.4,54.0,94,82,67,30.03,29.86,8,4,13,0.03
2013-8-26,71.2,64.3,58.3,63.9,59.5,56.0,93,85,71,30.07,30.01,6,2,8,0.00
2013-8-27,69.1,63.5,59.7,61.2,59.1,56.6,92,86,73,30.12,30.03,7,3,12,0.00
2013-8-28,71.1,63.8,58.5,62.4,58.5,53.0,92,83,68,30.21,30.12,8,2,12,0.00
2013-8-29,69.1,63.5,57.2,61.9,58.4,51.8,94,84,74,30.18,30.12,7,2,10,0.00
2013-8-30,70.5,65.0,61.5,63.5,60.9,59.2,94,87,72,30.18,30.07,9,4,13,0.00
2013-8-31,64.8,61.2,55.0,60.3,50.0,41.8,92,68,45,30.42,30.15,9,4,15,0.00
2013-9-1,67.1,58.0,50.2,54.5,48.9,42.7,83,72,62,30.45,30.36,6,2,10,0.00
2013-9-2,66.6,61.1,56.8,55.4,53.6,51.6,84,77,66,30.39,30.33,8,4,13,0.00
2013-9-3,70.3,61.9,53.8,59.3,55.3,46.0,89,79,67,30.33,30.21,4,1,8,0.00
2013-9-4,67.3,60.8,52.3,60.5,55.9,44.3,93,84,74,30.21,29.95,5,1,8,0.00
2013-9-5,68.9,59.8,52.7,60.3,54.4,46.5,93,83,68,29.98,29.83,9,3,12,0.05
2013-9-6,62.4,56.9,53.1,52.7,49.9,47.6,85,78,66,29.89,29.74,6,2,12,0.70
2013-9-7,61.5,55.1,50.4,53.6,48.1,45.0,90,78,58,30.03,29.80,8,3,12,0.33
2013-9-8,63.3,56.4,51.4,54.2,49.8,46.1,91,79,61,30.03,29.95,6,2,10,0.13
2013-9-9,65.8,60.2,56.7,59.8,54.6,48.8,98,83,59,30.15,29.83,10,5,16,0.08
2013-9-10,63.9,59.1,56.1,54.6,51.4,48.2,89,76,62,30.27,30.15,10,5,16,0.00
2013-9-11,64.9,60.4,57.9,60.2,54.4,49.9,96,81,67,30.27,30.12,8,4,13,0.00
2013-9-12,66.9,62.8,60.6,64.2,61.4,59.8,98,95,90,30.15,30.09,11,6,16,0.12
2013-9-13,65.8,61.4,57.4,64.2,59.9,53.7,98,95,88,30.09,29.95,10,4,14,0.38
2013-9-14,62.1,57.5,51.8,54.2,48.7,42.7,89,73,53,30.12,29.80,11,3,12,0.00
2013-9-15,61.7,56.6,49.5,61.1,51.6,42.9,98,84,65,30.12,29.71,17,5,23,0.25
2013-9-16,61.7,56.2,52.5,48.8,45.4,41.7,78,67,53,29.80,29.74,16,8,26,0.08
2013-9-17,62.6,58.4,32.0,61.6,55.6,44.7,98,90,69,29.80,29.56,14,6,23,0.17
2013-9-18,62.4,58.2,53.1,57.7,51.8,45.6,95,80,60,30.01,29.62,11,6,17,0.04
2013-9-19,64.2,57.8,32.0,62.6,55.2,47.6,98,90,84,30.03,29.86,12,5,16,0.08
2013-9-20,65.3,58.3,52.2,54.7,52.0,49.3,94,80,61,30.18,30.03,6,2,8,0.00
2013-9-21,68.7,63.1,58.1,65.4,61.2,53.8,98,93,85,30.33,30.18,6,2,8,0.00
2013-9-22,68.7,64.0,60.8,64.4,61.6,59.2,96,92,82,30.39,30.30,4,1,9,0.00
2013-9-23,63.1,61.1,60.3,61.5,59.7,57.8,98,95,88,30.30,30.03,8,3,14,0.00
2013-9-24,67.3,62.7,60.4,63.9,60.5,59.1,98,92,85,30.03,29.92,5,2,8,0.00
2013-9-25,64.6,62.1,60.3,62.2,60.2,58.5,96,93,91,29.92,29.83,3,1,8,0.00
2013-9-26,64.2,62.0,60.8,62.7,60.9,59.5,98,96,94,29.98,29.89,6,2,12,0.05
2013-9-27,67.5,62.5,60.3,61.9,58.6,55.1,95,88,77,29.98,29.74,11,5,17,0.00
2013-9-28,64.0,61.9,60.3,62.0,59.7,55.4,97,92,84,29.74,29.62,7,4,14,0.00
2013-9-29,62.1,60.6,59.9,61.5,59.3,57.4,98,96,91,29.68,29.62,6,3,13,0.08
2013-9-30,65.1,61.4,60.1,63.2,60.4,58.9,98,96,92,29.68,29.62,5,2,10,0.04
2013-10-1,63.9,61.9,61.3,63.3,61.4,60.5,98,98,97,29.68,29.62,6,2,11,0.62
2013-10-2,68.0,63.9,61.9,65.7,62.7,61.3,98,96,90,29.74,29.65,10,4,15,0.21
2013-10-3,67.6,63.1,61.0,65.5,61.9,59.8,98,96,93,29.74,29.53,6,2,12,0.70
2013-10-4,66.9,62.1,58.5,62.5,59.8,56.1,98,92,82,30.03,29.53,8,4,16,0.04
2013-10-5,65.3,58.9,32.0,57.2,53.0,48.6,93,81,59,30.27,30.03,4,1,6,0.00
2013-10-6,66.9,58.9,53.2,61.1,55.8,50.1,94,89,81,30.33,30.27,5,1,9,0.00
2013-10-7,67.3,61.9,58.3,62.8,59.8,56.6,98,93,83,30.30,30.27,5,2,9,0.00
2013-10-8,65.7,61.5,58.8,63.4,59.9,57.7,97,94,91,30.36,30.30,6,3,10,0.05
2013-10-9,61.2,58.6,54.5,58.5,52.9,43.0,95,82,65,30.33,30.18,10,5,15,0.04
2013-10-10,56.7,53.2,50.0,45.0,40.7,36.2,77,63,51,30.30,30.21,8,3,15,0.04
2013-10-11,60.1,53.6,46.8,49.4,43.5,38.2,79,69,53,30.27,30.18,10,4,14,0.00
2013-10-12,61.7,55.4,48.7,53.2,47.6,41.5,82,75,71,30.21,30.09,7,3,13,0.00
2013-10-13,60.1,55.6,52.0,54.3,50.9,47.0,93,84,75,30.12,29.95,7,3,10,0.08
2013-10-14,59.7,53.9,48.0,51.6,48.7,42.0,90,82,71,29.95,29.89,9,3,11,0.08
2013-10-15,59.4,52.3,45.5,53.9,47.7,40.2,91,85,77,29.92,29.83,5,1,9,0.00
2013-10-16,63.0,58.4,55.2,58.1,55.5,51.8,98,90,78,29.95,29.65,10,5,20,0.75
2013-10-17,63.5,59.9,56.5,60.7,58.3,55.4,98,94,89,30.03,29.92,7,4,13,0.04
2013-10-18,60.4,58.7,32.0,59.9,57.0,54.9,98,93,87,29.98,29.62,6,3,13,0.25
2013-10-19,63.7,60.3,56.1,60.8,58.2,53.2,98,93,84,29.62,29.59,8,4,15,0.08
2013-10-20,62.4,58.2,55.0,58.2,55.8,52.8,96,92,86,29.74,29.53,10,5,23,0.17
2013-10-21,61.5,60.0,57.9,60.8,59.3,56.8,98,98,96,29.74,29.44,11,6,22,1.25
2013-10-22,63.9,60.2,57.4,61.5,58.6,55.4,98,94,90,29.44,29.15,9,5,22,0.28
2013-10-23,61.7,56.9,50.7,57.0,52.7,45.9,96,86,71,29.86,29.21,7,3,13,0.05
2013-10-24,59.2,56.3,49.1,58.6,55.1,44.8,98,96,84,29.89,29.56,9,3,17,0.12
2013-10-25,63.1,60.1,58.6,60.3,58.4,57.0,98,94,87,29.68,29.50,13,6,26,0.25
2013-10-26,61.7,58.4,54.0,58.1,55.9,51.4,96,92,81,29.74,29.50,12,5,24,0.41
2013-10-27,60.1,55.5,32.0,59.5,53.0,49.5,98,89,82,29.56,29.09,16,6,30,1.37
2013-10-28,60.1,53.6,50.4,59.5,49.4,45.3,98,86,74,29.77,29.03,18,7,28,0.50
2013-10-29,56.8,51.6,48.6,46.6,44.1,42.4,84,76,66,30.15,29.77,10,4,16,0.04
2013-10-30,59.2,52.6,46.2,55.4,49.4,41.7,96,89,82,30.15,30.03,9,3,17,0.25
2013-10-31,57.0,53.8,49.5,55.1,52.2,46.8,97,94,91,30.09,29.98,8,3,11,0.08
2013-11-1,58.5,55.8,54.0,56.1,54.4,52.6,97,95,91,29.98,29.59,6,2,10,0.09
2013-11-2,56.7,53.1,48.9,54.6,47.7,39.7,97,83,68,29.68,29.53,13,5,27,0.12
2013-11-3,56.3,51.8,48.6,54.9,46.2,38.4,95,81,67,29.77,29.12,15,6,24,0.99
2013-11-4,54.7,51.4,48.0,51.3,44.7,39.0,93,78,67,29.56,29.15,15,3,19,0.00
2013-11-5,56.8,54.3,52.5,52.8,50.3,46.6,95,87,72,29.62,29.44,14,6,23,0.42
2013-11-6,59.7,57.3,53.4,58.0,56.0,51.9,98,96,94,29.71,29.59,12,7,21,0.29
2013-11-7,54.1,51.0,46.8,52.6,47.1,42.2,95,87,80,29.83,29.71,8,2,12,0.00
2013-11-8,52.7,48.1,44.8,48.8,43.5,40.2,93,84,75,29.86,29.71,9,3,17,0.25
2013-11-9,53.8,49.7,45.0,51.7,45.5,40.1,95,86,71,29.86,29.56,12,4,17,0.54
2013-11-10,55.0,51.0,48.2,54.2,46.4,41.7,97,84,71,30.24,29.74,9,3,14,0.87
2013-11-11,59.2,56.9,55.0,58.4,56.3,54.2,98,98,97,30.24,30.12,10,4,14,0.33
2013-11-12,57.0,52.0,44.4,56.5,47.3,38.8,98,84,69,30.60,30.21,8,3,12,0.08
2013-11-13,52.7,47.8,41.5,48.8,42.4,36.5,89,81,74,30.60,30.36,11,2,17,0.00
2013-11-14,52.7,50.7,49.1,46.5,40.8,35.8,82,69,58,30.57,30.36,14,8,23,0.04
2013-11-15,52.3,50.7,32.0,44.2,42.0,38.9,81,72,65,30.60,30.54,8,3,10,0.00
2013-11-16,52.7,50.2,46.6,46.9,44.5,40.3,84,81,75,30.54,30.42,4,1,6,0.00
2013-11-17,52.5,51.0,49.6,46.8,44.7,42.9,85,79,72,30.42,30.03,2,1,4,0.00
2013-11-18,52.5,49.4,46.4,48.9,43.2,33.3,91,79,60,30.03,29.89,8,3,13,0.04
2013-11-19,46.9,42.6,32.0,37.2,32.2,26.9,74,49,52,30.18,29.98,12,6,20,0.05
2013-11-20,51.6,47.5,44.1,45.4,38.7,31.6,86,72,57,30.15,29.71,20,9,29,0.16
2013-11-21,49.5,46.4,39.2,42.1,37.8,30.7,86,72,63,30.03,29.71,15,6,25,0.04
2013-11-22,47.5,39.8,35.4,37.5,32.5,29.1,81,75,65,30.21,30.03,5,1,8,0.00
2013-11-23,46.4,37.8,34.0,38.6,31.7,28.0,84,78,74,30.36,30.21,5,1,6,0.00
2013-11-24,46.6,42.0,32.0,38.4,35.5,29.6,85,77,72,30.60,30.36,2,1,4,0.00
2013-11-25,47.1,41.8,35.1,37.8,33.4,27.9,79,72,62,30.74,30.60,5,1,8,0.00
2013-11-26,45.9,39.5,32.5,39.7,32.6,25.6,82,76,70,30.74,30.63,4,1,6,0.00
2013-11-27,50.2,49.0,45.9,48.2,45.5,39.6,93,88,78,30.66,30.54,3,1,6,0.00
2013-11-28,52.2,50.1,48.7,49.1,46.9,44.5,93,89,82,30.60,30.57,2,0,3,0.00
2013-11-29,53.2,50.6,48.7,46.8,43.7,36.7,88,78,61,30.60,30.39,13,6,18,0.00
2013-11-30,50.9,47.0,38.7,42.0,37.6,30.7,78,70,59,30.51,30.36,8,3,14,0.00
2013-12-1,48.2,44.4,37.6,44.2,39.3,30.7,89,82,74,30.57,30.48,3,1,5,0.00
2013-12-2,49.8,47.3,40.8,45.0,41.5,34.2,85,80,75,30.54,30.42,3,1,6,0.00
2013-12-3,50.2,48.3,46.4,42.4,41.5,40.1,81,77,74,30.45,30.36,3,1,4,0.00
2013-12-4,50.7,47.2,38.8,48.0,40.0,32.1,91,76,67,30.57,30.36,6,2,11,0.04
2013-12-5,51.6,47.9,39.0,48.5,41.3,32.2,89,78,71,30.54,30.33,15,7,23,0.00
2013-12-6,53.6,49.1,32.0,48.4,43.8,40.7,85,81,80,30.48,30.42,8,2,11,0.00
2013-12-7,50.7,48.5,46.6,46.1,44.1,41.5,90,85,80,30.42,30.15,4,1,8,0.00
2013-12-8,58.8,50.1,46.8,52.3,47.9,45.0,98,92,87,30.36,30.27,6,3,10,0.08
2013-12-9,50.4,45.2,39.7,46.1,42.0,36.1,97,89,79,30.36,30.30,4,1,8,0.00
2013-12-10,53.8,50.3,42.3,48.9,45.7,37.9,92,84,79,30.36,30.33,4,2,12,0.00
2013-12-11,52.0,49.4,43.5,48.9,45.9,39.0,94,88,84,30.36,30.21,4,2,8,0.00
2013-12-12,56.3,53.8,32.0,53.6,51.5,46.3,95,91,87,30.24,30.09,8,4,14,0.09
2013-12-13,56.1,52.9,46.4,55.3,49.0,39.1,97,87,72,30.27,29.98,12,5,24,0.21
2013-12-14,54.7,52.2,46.0,53.4,48.5,40.1,96,87,75,30.27,30.01,14,7,27,0.37
2013-12-15,56.3,53.2,45.1,55.7,52.1,41.8,98,96,88,30.15,29.95,12,6,23,0.58
2013-12-16,56.3,52.9,47.5,55.7,50.1,41.6,98,90,79,30.15,29.89,12,4,23,0.12
2013-12-17,49.3,44.1,39.2,44.6,39.9,34.7,89,85,80,30.24,29.98,4,1,6,0.04
2013-12-18,54.7,51.0,32.0,54.1,49.2,40.4,98,93,79,29.98,29.21,13,7,27,1.58
2013-12-19,47.1,44.3,41.5,42.0,38.2,35.4,85,79,74,29.95,29.42,11,4,17,0.17
2013-12-20,53.1,47.6,42.6,51.6,43.2,37.2,96,85,80,30.18,29.95,15,7,33,0.37
2013-12-21,54.3,52.3,48.7,52.9,49.8,42.0,98,91,77,30.03,29.74,16,6,34,0.41
2013-12-22,51.3,48.1,32.0,45.6,42.3,38.0,87,79,72,29.95,29.80,16,5,28,0.17
2013-12-23,55.0,52.4,47.3,54.5,50.3,41.3,98,93,80,29.92,28.80,18,9,29,2.57
2013-12-24,51.8,44.8,41.4,50.4,39.3,34.0,95,81,74,29.00,28.83,13,6,23,0.33
2013-12-25,46.2,42.8,40.6,42.1,38.3,35.1,87,84,77,29.24,28.94,8,2,18,0.25
2013-12-26,53.8,46.4,40.3,53.2,42.2,35.8,98,85,77,29.53,29.06,14,4,25,0.50
2013-12-27,55.4,49.4,42.4,53.2,41.9,36.1,98,76,68,29.33,29.06,14,7,26,0.08
2013-12-28,45.0,43.1,41.0,41.0,38.7,35.7,88,84,80,29.86,29.33,8,2,14,0.46
2013-12-29,51.8,45.5,38.8,50.8,41.5,33.8,97,86,79,30.09,29.86,10,4,18,0.29
2013-12-30,52.7,50.0,45.1,52.2,46.5,40.0,98,88,75,29.86,29.56,16,6,27,0.99
2013-12-31,51.3,48.4,32.0,48.2,43.1,39.9,91,82,70,29.68,29.47,13,6,22,0.33
2014-1-1,54.5,50.8,45.5,53.8,48.7,40.6,98,93,82,29.53,28.97,15,7,30,1.16
2014-1-2,53.6,49.6,45.3,52.6,46.1,41.7,97,87,83,29.44,29.18,13,5,22,0.25